createdAt,value
2018-07-13T00:01:53.370Z,71.99
2018-07-13T00:04:21.172Z,72.71
2018-07-13T00:06:48.987Z,72.96
2018-07-13T00:09:17.209Z,73.97
2018-07-13T00:11:45.092Z,69.30
2018-07-13T00:14:22.696Z,73.93
2018-07-13T00:16:51.849Z,70.13
2018-07-13T00:19:20.405Z,75.93
2018-07-13T00:21:48.285Z,73.83
2018-07-13T00:24:16.084Z,72.20
2018-07-13T00:26:43.959Z,71.27
2018-07-13T00:29:12.015Z,74.36
2018-07-13T00:31:40.998Z,74.01
2018-07-13T00:34:08.957Z,73.63
2018-07-13T00:36:45.253Z,72.19
2018-07-13T00:39:15.609Z,76.24
2018-07-13T00:41:43.508Z,74.76
2018-07-13T00:44:11.865Z,75.62
2018-07-13T00:46:39.832Z,74.90
2018-07-13T00:49:07.685Z,74.56
2018-07-13T00:51:35.443Z,75.67
2018-07-13T00:54:03.257Z,77.28
2018-07-13T00:56:31.116Z,76.35
2018-07-13T00:58:59.350Z,74.86
2018-07-13T01:01:27.253Z,75.04
2018-07-13T01:03:55.149Z,77.25
2018-07-13T01:06:23.067Z,76.69
2018-07-13T01:08:50.910Z,71.34
2018-07-13T01:11:18.893Z,74.12
2018-07-13T01:13:46.738Z,76.65
2018-07-13T01:16:14.790Z,76.06
2018-07-13T01:18:43.847Z,76.07
2018-07-13T01:21:11.624Z,77.94
2018-07-13T01:23:39.482Z,78.71
2018-07-13T01:26:07.277Z,75.12
2018-07-13T01:28:35.042Z,75.56
2018-07-13T01:31:02.909Z,73.44
2018-07-13T01:33:30.809Z,76.87
2018-07-13T01:35:58.618Z,75.99
2018-07-13T01:38:26.484Z,76.23
2018-07-13T01:40:54.356Z,77.31
2018-07-13T01:43:22.165Z,74.32
2018-07-13T01:45:50.046Z,76.44
2018-07-13T01:48:18.445Z,73.64
2018-07-13T01:50:46.256Z,78.52
2018-07-13T01:53:14.069Z,75.68
2018-07-13T01:55:42.086Z,77.77
2018-07-13T01:58:09.872Z,76.73
2018-07-13T02:00:37.733Z,79.41
2018-07-13T02:03:05.778Z,79.04
2018-07-13T02:05:33.661Z,76.31
2018-07-13T02:08:01.536Z,77.50
2018-07-13T02:10:29.354Z,76.07
2018-07-13T02:12:57.211Z,79.75
2018-07-13T02:15:25.093Z,78.09
2018-07-13T02:17:52.899Z,79.16
2018-07-13T02:20:20.761Z,80.45
2018-07-13T02:22:48.626Z,75.80
2018-07-13T02:25:16.527Z,79.35
2018-07-13T02:27:44.381Z,79.12
2018-07-13T02:30:12.188Z,72.26
2018-07-13T02:32:40.086Z,78.31
2018-07-13T02:35:07.921Z,78.03
2018-07-13T02:37:35.817Z,80.92
2018-07-13T02:40:03.874Z,82.83
2018-07-13T02:42:31.748Z,81.48
2018-07-13T02:44:59.590Z,82.63
2018-07-13T02:47:27.469Z,82.19
2018-07-13T02:49:55.330Z,80.77
2018-07-13T02:52:23.205Z,82.04
2018-07-13T02:54:51.057Z,82.18
2018-07-13T02:57:18.933Z,80.51
2018-07-13T02:59:46.777Z,82.16
2018-07-13T03:02:14.585Z,81.95
2018-07-13T03:04:42.386Z,80.90
2018-07-13T03:07:10.153Z,83.38
2018-07-13T03:09:37.922Z,83.30
2018-07-13T03:12:05.795Z,83.30
2018-07-13T03:14:33.647Z,80.37
2018-07-13T03:17:01.469Z,82.01
2018-07-13T03:19:29.269Z,83.48
2018-07-13T03:21:57.166Z,80.74
2018-07-13T03:24:24.949Z,81.30
2018-07-13T03:26:52.854Z,79.33
2018-07-13T03:29:20.777Z,80.39
2018-07-13T03:31:48.642Z,82.29
2018-07-13T03:34:16.543Z,78.55
2018-07-13T03:36:44.268Z,81.51
2018-07-13T03:39:12.085Z,81.59
2018-07-13T03:41:39.941Z,83.02
2018-07-13T03:44:07.791Z,81.27
2018-07-13T03:46:35.611Z,78.79
2018-07-13T03:49:03.522Z,76.78
2018-07-13T03:51:31.336Z,80.73
2018-07-13T03:53:59.249Z,80.92
2018-07-13T03:56:27.185Z,80.41
2018-07-13T03:58:55.069Z,82.34
2018-07-13T04:01:22.913Z,80.79
2018-07-13T04:03:50.804Z,81.04
2018-07-13T04:06:18.528Z,83.02
2018-07-13T04:08:46.361Z,82.62
2018-07-13T04:11:14.291Z,81.99
2018-07-13T04:13:42.151Z,82.79
2018-07-13T04:16:10.056Z,84.46
2018-07-13T04:18:37.956Z,80.17
2018-07-13T04:21:06.013Z,79.41
2018-07-13T04:23:33.897Z,83.91
2018-07-13T04:26:01.763Z,84.29
2018-07-13T04:28:29.697Z,84.76
2018-07-13T04:30:57.585Z,84.07
2018-07-13T04:33:25.389Z,84.74
2018-07-13T04:35:53.266Z,84.58
2018-07-13T04:38:21.151Z,83.94
2018-07-13T04:40:49.090Z,82.08
2018-07-13T04:43:16.937Z,83.68
2018-07-13T04:45:44.830Z,83.13
2018-07-13T04:48:12.776Z,80.94
2018-07-13T04:50:40.632Z,81.10
2018-07-13T04:53:08.570Z,82.39
2018-07-13T04:55:36.579Z,83.34
2018-07-13T04:58:04.493Z,82.01
2018-07-13T05:00:32.474Z,81.91
2018-07-13T05:03:00.392Z,82.01
2018-07-13T05:05:28.320Z,80.85
2018-07-13T05:07:56.273Z,81.75
2018-07-13T05:10:24.150Z,81.65
2018-07-13T05:12:52.090Z,81.31
2018-07-13T05:15:20.776Z,80.64
2018-07-13T05:17:48.728Z,80.54
2018-07-13T05:20:16.609Z,80.51
2018-07-13T05:22:44.588Z,79.93
2018-07-13T05:25:12.669Z,79.06
2018-07-13T05:27:40.801Z,79.14
2018-07-13T05:30:08.694Z,79.80
2018-07-13T05:32:36.809Z,78.11
2018-07-13T05:35:04.748Z,78.04
2018-07-13T05:37:32.731Z,77.09
2018-07-13T05:40:02.271Z,78.19
2018-07-13T05:42:30.118Z,77.39
2018-07-13T05:44:58.102Z,78.71
2018-07-13T05:47:26.160Z,77.25
2018-07-13T05:49:54.089Z,78.40
2018-07-13T05:52:22.041Z,77.96
2018-07-13T05:54:50.008Z,74.98
2018-07-13T05:57:17.902Z,77.38
2018-07-13T05:59:45.860Z,76.35
2018-07-13T06:02:13.763Z,75.89
2018-07-13T06:04:41.733Z,75.28
2018-07-13T06:07:09.709Z,74.11
2018-07-13T06:09:37.683Z,75.08
2018-07-13T06:12:06.489Z,74.45
2018-07-13T06:14:34.380Z,74.27
2018-07-13T06:17:02.187Z,73.15
2018-07-13T06:19:30.038Z,71.93
2018-07-13T06:21:57.936Z,73.35
2018-07-13T06:24:25.853Z,71.64
2018-07-13T06:26:53.790Z,70.38
2018-07-13T06:29:21.818Z,71.40
2018-07-13T06:31:49.701Z,70.12
2018-07-13T06:34:17.688Z,70.53
2018-07-13T06:36:45.777Z,69.07
2018-07-13T06:39:13.770Z,69.38
2018-07-13T06:41:41.952Z,67.43
2018-07-13T06:44:09.784Z,67.42
2018-07-13T06:46:43.656Z,67.36
2018-07-13T06:49:11.581Z,66.85
2018-07-13T06:51:39.623Z,65.98
2018-07-13T06:54:08.201Z,65.97
2018-07-13T06:56:36.132Z,65.85
2018-07-13T06:59:19.052Z,65.14
2018-07-13T07:01:47.833Z,65.30
2018-07-13T07:04:38.258Z,62.75
2018-07-13T07:07:14.187Z,64.08
2018-07-13T07:09:59.953Z,63.58
2018-07-13T07:12:53.789Z,63.27
2018-07-13T07:15:22.758Z,62.30
2018-07-13T07:17:51.019Z,61.94
2018-07-13T07:20:18.901Z,62.44
2018-07-13T07:22:47.617Z,61.15
2018-07-13T07:25:15.964Z,60.96
2018-07-13T07:27:44.505Z,60.53
2018-07-13T07:30:12.635Z,60.28
2018-07-13T07:32:40.538Z,61.40
2018-07-13T07:35:08.862Z,60.24
2018-07-13T07:37:36.840Z,60.30
2018-07-13T07:40:05.077Z,60.31
2018-07-13T07:42:33.344Z,59.10
2018-07-13T07:45:01.373Z,59.80
2018-07-13T07:47:29.265Z,60.16
2018-07-13T07:49:57.227Z,59.55
2018-07-13T07:52:25.097Z,59.96
2018-07-13T07:54:53.100Z,59.07
2018-07-13T07:57:20.990Z,55.10
2018-07-13T07:59:48.941Z,56.17
2018-07-13T08:02:16.910Z,53.93
2018-07-13T08:04:44.956Z,54.62
2018-07-13T08:07:13.081Z,55.48
2018-07-13T08:09:40.665Z,55.09
2018-07-13T08:12:08.641Z,54.38
2018-07-13T08:14:36.569Z,55.00
2018-07-13T08:17:04.417Z,54.91
2018-07-13T08:19:32.279Z,56.04
2018-07-13T08:22:08.415Z,53.40
2018-07-13T08:24:36.285Z,52.25
2018-07-13T08:27:04.742Z,54.03
2018-07-13T08:29:36.702Z,52.94
2018-07-13T08:32:04.897Z,53.05
2018-07-13T08:34:32.753Z,52.12
2018-07-13T08:37:00.622Z,51.50
2018-07-13T08:39:28.519Z,51.23
2018-07-13T08:41:56.456Z,52.01
2018-07-13T08:44:24.390Z,50.74
2018-07-13T08:46:52.459Z,50.84
2018-07-13T08:49:20.362Z,50.43
2018-07-13T08:51:48.352Z,50.08
2018-07-13T08:54:16.317Z,50.69
2018-07-13T08:56:44.318Z,49.98
2018-07-13T08:59:12.245Z,49.52
2018-07-13T09:01:40.157Z,49.61
2018-07-13T09:04:08.054Z,51.09
2018-07-13T09:06:36.529Z,48.94
2018-07-13T09:09:11.001Z,47.54
2018-07-13T09:11:39.125Z,46.88
2018-07-13T09:14:07.104Z,48.22
2018-07-13T09:16:35.150Z,49.67
2018-07-13T09:19:03.157Z,48.81
2018-07-13T09:21:31.096Z,47.06
2018-07-13T09:23:59.429Z,45.80
2018-07-13T09:26:27.821Z,45.69
2018-07-13T09:28:55.992Z,45.40
2018-07-13T09:31:24.012Z,45.50
2018-07-13T09:33:52.133Z,46.39
2018-07-13T09:36:20.027Z,44.11
2018-07-13T09:38:48.084Z,44.40
2018-07-13T09:41:16.065Z,45.15
2018-07-13T09:43:44.049Z,43.49
2018-07-13T09:46:11.998Z,43.44
2018-07-13T09:48:39.997Z,43.32
2018-07-13T09:51:07.877Z,42.72
2018-07-13T09:53:36.405Z,41.92
2018-07-13T09:56:04.374Z,40.88
2018-07-13T09:58:37.366Z,39.68
2018-07-13T10:01:11.593Z,37.71
2018-07-13T10:03:39.489Z,36.17
2018-07-13T10:06:07.385Z,35.39
2018-07-13T10:08:35.528Z,32.01
2018-07-13T10:11:03.489Z,30.69
2018-07-13T10:13:31.522Z,29.17
2018-07-13T10:16:00.263Z,27.97
2018-07-13T10:18:28.257Z,27.69
2018-07-13T10:20:57.929Z,27.40
2018-07-13T10:23:26.366Z,26.97
2018-07-13T10:26:02.578Z,24.97
2018-07-13T10:28:31.727Z,24.74
2018-07-13T10:31:00.271Z,22.59
2018-07-13T10:33:28.219Z,22.70
2018-07-13T10:35:57.317Z,21.69
2018-07-13T10:38:25.258Z,21.33
2018-07-13T10:40:53.142Z,19.08
2018-07-13T10:43:21.022Z,19.24
2018-07-13T10:45:49.051Z,18.32
2018-07-13T10:48:17.534Z,18.70
2018-07-13T10:50:45.350Z,17.83
2018-07-13T10:53:13.437Z,16.91
2018-07-13T10:55:41.367Z,16.33
2018-07-13T10:58:09.228Z,15.35
2018-07-13T11:00:37.084Z,15.52
2018-07-13T11:03:04.905Z,16.01
2018-07-13T11:05:32.730Z,15.18
2018-07-13T11:08:00.648Z,14.71
2018-07-13T11:10:28.474Z,14.31
2018-07-13T11:12:56.327Z,15.08
2018-07-13T11:15:24.190Z,15.35
2018-07-13T11:17:52.089Z,13.86
2018-07-13T11:20:19.913Z,14.33
2018-07-13T11:22:47.854Z,14.02
2018-07-13T11:25:15.679Z,14.14
2018-07-13T11:27:43.572Z,14.78
2018-07-13T11:30:11.529Z,14.61
2018-07-13T11:32:39.325Z,15.49
2018-07-13T11:35:07.319Z,13.91
2018-07-13T11:37:37.219Z,14.10
2018-07-13T11:40:05.389Z,14.72
2018-07-13T11:42:33.212Z,14.15
2018-07-13T11:45:01.117Z,14.17
2018-07-13T11:47:28.966Z,13.17
2018-07-13T11:49:56.873Z,14.19
2018-07-13T11:52:24.737Z,13.37
2018-07-13T11:54:52.665Z,14.12
2018-07-13T11:57:20.461Z,13.93
2018-07-13T11:59:48.303Z,12.77
2018-07-13T12:02:16.102Z,13.90
2018-07-13T12:04:43.917Z,12.55
2018-07-13T12:07:11.801Z,13.52
2018-07-13T12:09:39.586Z,12.82
2018-07-13T12:12:07.476Z,13.73
2018-07-13T12:14:35.345Z,13.48
2018-07-13T12:17:03.152Z,14.40
2018-07-13T12:19:30.968Z,12.08
2018-07-13T12:21:58.837Z,13.20
2018-07-13T12:24:26.687Z,14.52
2018-07-13T12:26:54.536Z,14.80
2018-07-13T12:29:22.377Z,14.27
2018-07-13T12:31:50.168Z,15.23
2018-07-13T12:34:18.016Z,15.31
2018-07-13T12:36:45.869Z,15.83
2018-07-13T12:39:13.751Z,15.54
2018-07-13T12:41:41.632Z,16.16
2018-07-13T12:44:09.530Z,15.80
2018-07-13T12:46:37.333Z,15.06
2018-07-13T12:49:05.228Z,16.40
2018-07-13T12:51:33.601Z,16.72
2018-07-13T12:54:01.558Z,18.15
2018-07-13T12:56:29.261Z,16.78
2018-07-13T12:58:57.052Z,16.48
2018-07-13T13:01:24.984Z,17.71
2018-07-13T13:03:52.793Z,15.97
2018-07-13T13:06:20.621Z,15.30
2018-07-13T13:08:48.377Z,17.12
2018-07-13T13:11:16.276Z,18.66
2018-07-13T13:13:44.156Z,16.55
2018-07-13T13:16:12.377Z,17.90
2018-07-13T13:18:40.181Z,19.18
2018-07-13T13:21:08.062Z,19.41
2018-07-13T13:23:35.920Z,19.97
2018-07-13T13:26:03.737Z,18.77
2018-07-13T13:28:31.521Z,19.35
2018-07-13T13:30:59.457Z,20.18
2018-07-13T13:33:27.330Z,21.12
2018-07-13T13:35:55.125Z,21.71
2018-07-13T13:38:23.025Z,21.20
2018-07-13T13:40:51.194Z,20.16
2018-07-13T13:43:19.041Z,22.12
2018-07-13T13:45:46.797Z,21.93
2018-07-13T13:48:14.626Z,21.62
2018-07-13T13:50:42.502Z,22.11
2018-07-13T13:53:10.330Z,20.57
2018-07-13T13:55:38.229Z,22.56
2018-07-13T13:58:06.039Z,22.61
2018-07-13T14:00:33.973Z,23.10
2018-07-13T14:03:01.818Z,22.73
2018-07-13T14:05:30.452Z,23.21
2018-07-13T14:07:58.245Z,23.32
2018-07-13T14:10:26.177Z,24.33
2018-07-13T14:12:54.065Z,25.55
2018-07-13T14:15:21.941Z,25.40
2018-07-13T14:17:49.806Z,26.57
2018-07-13T14:20:17.699Z,26.50
2018-07-13T14:22:45.608Z,27.03
2018-07-13T14:25:13.457Z,27.73
2018-07-13T14:27:41.355Z,27.62
2018-07-13T14:30:09.243Z,27.24
2018-07-13T14:32:37.078Z,28.62
2018-07-13T14:35:05.264Z,28.04
2018-07-13T14:37:33.174Z,28.33
2018-07-13T14:40:01.162Z,28.83
2018-07-13T14:42:29.168Z,30.06
2018-07-13T14:44:57.082Z,30.96
2018-07-13T14:47:24.945Z,31.68
2018-07-13T14:49:52.841Z,31.62
2018-07-13T14:52:20.775Z,31.75
2018-07-13T14:54:48.685Z,31.28
2018-07-13T14:57:16.560Z,31.78
2018-07-13T14:59:44.589Z,32.43
2018-07-13T15:02:12.404Z,31.64
2018-07-13T15:04:40.365Z,30.88
2018-07-13T15:07:08.227Z,31.01
2018-07-13T15:09:36.126Z,31.38
2018-07-13T15:12:03.982Z,30.20
2018-07-13T15:14:31.781Z,30.20
2018-07-13T15:16:59.644Z,30.90
2018-07-13T15:19:27.517Z,30.32
2018-07-13T15:21:55.366Z,30.65
2018-07-13T15:24:24.073Z,29.85
2018-07-13T15:26:51.897Z,31.35
2018-07-13T15:29:19.810Z,29.51
2018-07-13T15:31:47.586Z,29.68
2018-07-13T15:34:15.529Z,28.77
2018-07-13T15:36:43.385Z,29.75
2018-07-13T15:39:11.260Z,29.14
2018-07-13T15:41:39.145Z,30.49
2018-07-13T15:44:06.972Z,30.07
2018-07-13T15:46:34.740Z,30.84
2018-07-13T15:49:02.541Z,31.28
2018-07-13T15:51:30.407Z,31.00
2018-07-13T15:53:58.328Z,31.28
2018-07-13T15:56:26.189Z,30.15
2018-07-13T15:58:54.108Z,30.70
2018-07-13T16:01:21.942Z,30.64
2018-07-13T16:03:49.767Z,29.92
2018-07-13T16:06:17.602Z,30.00
2018-07-13T16:08:45.464Z,28.36
2018-07-13T16:11:13.317Z,28.63
2018-07-13T16:13:41.237Z,28.94
2018-07-13T16:16:09.095Z,29.71
2018-07-13T16:18:36.916Z,28.98
2018-07-13T16:21:04.761Z,28.98
2018-07-13T16:23:32.569Z,29.10
2018-07-13T16:26:00.447Z,29.17
2018-07-13T16:28:28.307Z,30.05
2018-07-13T16:30:56.183Z,30.78
2018-07-13T16:33:24.043Z,30.80
2018-07-13T16:35:51.944Z,31.01
2018-07-13T16:38:19.868Z,30.58
2018-07-13T16:40:47.774Z,31.10
2018-07-13T16:43:15.680Z,32.15
2018-07-13T16:45:43.529Z,30.56
2018-07-13T16:48:11.386Z,31.66
2018-07-13T16:50:39.293Z,31.70
2018-07-13T16:53:07.085Z,32.25
2018-07-13T16:55:35.029Z,31.24
2018-07-13T16:58:02.888Z,31.24
2018-07-13T17:00:30.726Z,31.88
2018-07-13T17:02:58.629Z,31.68
2018-07-13T17:05:26.489Z,32.11
2018-07-13T17:07:54.269Z,32.21
2018-07-13T17:10:22.051Z,32.79
2018-07-13T17:12:49.856Z,31.04
2018-07-13T17:15:17.655Z,32.07
2018-07-13T17:17:45.446Z,30.76
2018-07-13T17:20:13.345Z,30.66
2018-07-13T17:22:41.046Z,30.95
2018-07-13T17:25:08.876Z,32.03
2018-07-13T17:27:36.744Z,32.47
2018-07-13T17:30:05.873Z,32.04
2018-07-13T17:32:33.735Z,32.32
2018-07-13T17:35:01.493Z,32.23
2018-07-13T17:37:29.291Z,32.71
2018-07-13T17:39:57.010Z,33.78
2018-07-13T17:42:24.856Z,33.33
2018-07-13T17:44:52.628Z,33.58
2018-07-13T17:47:20.419Z,33.07
2018-07-13T17:49:48.235Z,33.89
2018-07-13T17:52:16.091Z,33.77
2018-07-13T17:54:43.927Z,34.44
2018-07-13T17:57:11.744Z,35.42
2018-07-13T17:59:39.603Z,36.28
2018-07-13T18:02:07.463Z,36.62
2018-07-13T18:04:35.251Z,36.83
2018-07-13T18:07:03.026Z,37.24
2018-07-13T18:09:30.857Z,37.45
2018-07-13T18:11:58.735Z,37.67
2018-07-13T18:14:26.467Z,37.96
2018-07-13T18:16:54.276Z,37.80
2018-07-13T18:19:22.061Z,38.64
2018-07-13T18:21:49.811Z,38.33
2018-07-13T18:24:17.556Z,38.34
2018-07-13T18:26:45.339Z,38.22
2018-07-13T18:29:13.132Z,38.29
2018-07-13T18:31:41.123Z,37.82
2018-07-13T18:34:08.952Z,38.11
2018-07-13T18:36:36.816Z,37.85
2018-07-13T18:39:05.203Z,37.77
2018-07-13T18:41:33.127Z,37.64
2018-07-13T18:44:00.992Z,38.40
2018-07-13T18:46:28.784Z,38.09
2018-07-13T18:48:56.584Z,38.48
2018-07-13T18:51:24.402Z,39.21
2018-07-13T18:53:52.171Z,38.67
2018-07-13T18:56:19.995Z,39.25
2018-07-13T18:58:47.919Z,39.58
2018-07-13T19:01:15.641Z,39.32
2018-07-13T19:03:43.460Z,39.82
2018-07-13T19:06:11.319Z,41.36
2018-07-13T19:08:39.430Z,41.82
2018-07-13T19:11:07.222Z,41.96
2018-07-13T19:13:35.064Z,41.86
2018-07-13T19:16:02.912Z,41.59
2018-07-13T19:18:31.145Z,43.00
2018-07-13T19:20:58.875Z,43.54
2018-07-13T19:23:26.636Z,44.79
2018-07-13T19:25:54.427Z,44.33
2018-07-13T19:28:22.241Z,42.93
2018-07-13T19:30:50.037Z,44.09
2018-07-13T19:33:17.899Z,44.94
2018-07-13T19:35:45.728Z,46.79
2018-07-13T19:38:13.514Z,47.19
2018-07-13T19:40:41.355Z,45.63
2018-07-13T19:43:09.195Z,46.56
2018-07-13T19:45:37.863Z,48.80
2018-07-13T19:48:05.947Z,48.09
2018-07-13T19:50:33.879Z,48.12
2018-07-13T19:53:01.639Z,48.08
2018-07-13T19:55:29.746Z,48.89
2018-07-13T19:57:58.271Z,48.79
2018-07-13T20:00:27.126Z,50.87
2018-07-13T20:02:55.004Z,49.89
2018-07-13T20:05:25.384Z,50.45
2018-07-13T20:07:55.533Z,50.44
2018-07-13T20:10:25.719Z,49.61
2018-07-13T20:12:53.547Z,49.16
2018-07-13T20:15:21.387Z,51.33
2018-07-13T20:17:49.170Z,52.12
2018-07-13T20:20:16.959Z,53.54
2018-07-13T20:22:44.815Z,52.25
2018-07-13T20:25:12.671Z,52.55
2018-07-13T20:27:40.439Z,51.65
2018-07-13T20:30:09.261Z,54.05
2018-07-13T20:32:37.112Z,54.95
2018-07-13T20:35:05.044Z,55.19
2018-07-13T20:37:32.912Z,54.60
2018-07-13T20:40:00.763Z,57.47
2018-07-13T20:42:29.026Z,56.12
2018-07-13T20:44:56.835Z,55.94
2018-07-13T20:47:24.683Z,57.61
2018-07-13T20:49:52.451Z,57.23
2018-07-13T20:52:20.280Z,56.70
2018-07-13T20:54:48.019Z,57.64
2018-07-13T20:57:19.847Z,58.43
2018-07-13T20:59:48.501Z,56.53
2018-07-13T21:02:16.332Z,59.31
2018-07-13T21:04:44.159Z,56.22
2018-07-13T21:07:12.370Z,58.55
2018-07-13T21:09:40.127Z,57.81
2018-07-13T21:12:07.967Z,56.80
2018-07-13T21:14:35.772Z,57.82
2018-07-13T21:17:03.647Z,59.33
2018-07-13T21:19:31.421Z,58.81
2018-07-13T21:21:59.319Z,57.11
2018-07-13T21:24:27.155Z,57.28
2018-07-13T21:26:55.029Z,56.67
2018-07-13T21:29:23.067Z,59.48
2018-07-13T21:31:54.747Z,59.03
2018-07-13T21:34:22.916Z,58.78
2018-07-13T21:36:50.716Z,56.04
2018-07-13T21:39:18.522Z,56.96
2018-07-13T21:41:46.307Z,57.58
2018-07-13T21:44:14.258Z,57.60
2018-07-13T21:46:42.372Z,59.19
2018-07-13T21:49:12.760Z,58.75
2018-07-13T21:51:43.607Z,57.80
2018-07-13T21:54:11.444Z,58.09
2018-07-13T21:56:39.228Z,58.14
2018-07-13T21:59:07.721Z,61.17
2018-07-13T22:01:35.605Z,60.33
2018-07-13T22:04:03.528Z,60.92
2018-07-13T22:06:31.438Z,61.35
2018-07-13T22:08:59.207Z,61.04
2018-07-13T22:11:27.071Z,60.60
2018-07-13T22:13:54.887Z,57.50
2018-07-13T22:16:22.748Z,58.39
2018-07-13T22:18:50.552Z,57.47
2018-07-13T22:21:18.279Z,59.08
2018-07-13T22:23:46.136Z,59.94
2018-07-13T22:26:13.888Z,60.54
2018-07-13T22:28:41.720Z,59.85
2018-07-13T22:31:09.591Z,59.22
2018-07-13T22:33:37.391Z,57.28
2018-07-13T22:36:05.280Z,56.77
2018-07-13T22:38:33.104Z,58.32
2018-07-13T22:41:00.911Z,57.61
2018-07-13T22:43:29.127Z,58.41
2018-07-13T22:45:57.132Z,59.58
2018-07-13T22:48:24.955Z,56.99
2018-07-13T22:50:52.739Z,56.47
2018-07-13T22:53:20.520Z,57.65
2018-07-13T22:55:48.439Z,58.03
2018-07-13T22:58:16.211Z,60.06
2018-07-13T23:00:44.035Z,60.78
2018-07-13T23:03:11.944Z,62.18
2018-07-13T23:05:39.706Z,59.78
2018-07-13T23:08:07.504Z,60.08
2018-07-13T23:10:35.285Z,62.31
2018-07-13T23:13:03.147Z,60.49
2018-07-13T23:15:31.041Z,58.90
2018-07-13T23:17:58.738Z,57.78
2018-07-13T23:20:26.588Z,59.39
2018-07-13T23:22:54.440Z,59.22
2018-07-13T23:25:22.315Z,62.50
2018-07-13T23:27:50.125Z,62.72
2018-07-13T23:30:17.947Z,60.51
2018-07-13T23:32:45.795Z,63.83
2018-07-13T23:35:13.619Z,63.21
2018-07-13T23:37:41.387Z,63.32
2018-07-13T23:40:09.227Z,60.55
2018-07-13T23:42:37.123Z,62.29
2018-07-13T23:45:04.932Z,60.95
2018-07-13T23:47:32.771Z,59.17
2018-07-13T23:50:00.543Z,61.37
2018-07-13T23:52:28.375Z,63.09
2018-07-13T23:54:56.291Z,59.31
2018-07-13T23:57:24.083Z,59.38
2018-07-13T23:59:51.830Z,59.63
